createdAt,value
2023-02-08T00:01:16.336Z,10.54
2023-02-08T00:03:44.496Z,10.49
2023-02-08T00:06:14.256Z,10.38
2023-02-08T00:08:43.544Z,10.30
2023-02-08T00:11:11.007Z,10.44
2023-02-08T00:13:41.656Z,10.44
2023-02-08T00:16:10.404Z,10.45
2023-02-08T00:18:40.677Z,10.25
2023-02-08T00:21:10.574Z,10.20
2023-02-08T00:23:38.189Z,10.23
2023-02-08T00:26:08.089Z,10.39
2023-02-08T00:28:35.766Z,10.58
2023-02-08T00:31:04.160Z,10.68
2023-02-08T00:33:31.411Z,10.72
2023-02-08T00:35:59.995Z,10.77
2023-02-08T00:38:27.597Z,10.88
2023-02-08T00:40:54.935Z,11.03
2023-02-08T00:43:23.806Z,11.19
2023-02-08T00:45:54.687Z,11.31
2023-02-08T00:48:22.213Z,11.42
2023-02-08T00:50:58.595Z,11.41
2023-02-08T00:53:26.097Z,11.38
2023-02-08T00:55:53.361Z,11.31
2023-02-08T00:58:21.997Z,11.28
2023-02-08T01:00:53.299Z,11.26
2023-02-08T01:03:21.405Z,11.29
2023-02-08T01:05:49.124Z,11.23
2023-02-08T01:08:16.928Z,11.16
2023-02-08T01:10:44.668Z,11.10
2023-02-08T01:13:11.638Z,11.01
2023-02-08T01:15:38.840Z,10.96
2023-02-08T01:18:08.241Z,10.94
2023-02-08T01:20:37.100Z,10.91
2023-02-08T01:23:05.309Z,10.87
2023-02-08T01:25:32.477Z,10.75
2023-02-08T01:28:00.118Z,10.54
2023-02-08T01:30:27.465Z,10.40
2023-02-08T01:32:54.630Z,10.45
2023-02-08T01:35:23.456Z,10.54
2023-02-08T01:37:51.026Z,10.59
2023-02-08T01:40:18.369Z,10.65
2023-02-08T01:42:46.143Z,10.72
2023-02-08T01:45:26.664Z,10.70
2023-02-08T01:47:59.594Z,10.76
2023-02-08T01:50:33.408Z,10.71
2023-02-08T01:53:01.704Z,10.71
2023-02-08T01:55:33.479Z,10.64
2023-02-08T01:58:06.512Z,10.64
2023-02-08T02:00:34.117Z,10.69
2023-02-08T02:03:02.392Z,10.77
2023-02-08T02:05:39.472Z,10.80
2023-02-08T02:08:08.405Z,10.78
2023-02-08T02:10:38.301Z,10.77
2023-02-08T02:13:08.457Z,10.80
2023-02-08T02:15:35.657Z,10.91
2023-02-08T02:18:06.068Z,10.93
2023-02-08T02:20:50.960Z,10.87
2023-02-08T02:23:38.003Z,10.85
2023-02-08T02:26:42.555Z,10.81
2023-02-08T02:29:48.905Z,10.85
2023-02-08T02:32:45.005Z,10.83
2023-02-08T02:35:20.371Z,10.88
2023-02-08T02:37:58.131Z,10.90
2023-02-08T02:40:34.794Z,10.91
2023-02-08T02:43:11.657Z,10.88
2023-02-08T02:45:47.119Z,10.81
2023-02-08T02:48:23.544Z,10.82
2023-02-08T02:50:58.489Z,10.84
2023-02-08T02:53:34.518Z,10.77
2023-02-08T02:56:07.147Z,10.59
2023-02-08T02:58:36.619Z,10.57
2023-02-08T03:01:04.316Z,10.68
2023-02-08T03:03:34.897Z,10.74
2023-02-08T03:06:08.065Z,10.76
2023-02-08T03:09:03.025Z,10.79
2023-02-08T03:11:34.877Z,10.82
2023-02-08T03:14:29.766Z,10.86
2023-02-08T03:17:17.696Z,10.83
2023-02-08T03:19:54.649Z,10.90
2023-02-08T03:22:29.564Z,10.93
2023-02-08T03:25:03.541Z,10.95
2023-02-08T03:27:37.619Z,10.93
2023-02-08T03:30:13.007Z,10.88
2023-02-08T03:32:47.489Z,10.91
2023-02-08T03:35:23.324Z,11.03
2023-02-08T03:37:58.828Z,11.02
2023-02-08T03:40:31.478Z,10.83
2023-02-08T03:43:03.735Z,10.87
2023-02-08T03:45:36.649Z,10.90
2023-02-08T03:48:08.148Z,10.90
2023-02-08T03:50:40.290Z,10.90
2023-02-08T03:53:09.652Z,10.86
2023-02-08T03:55:39.767Z,10.78
2023-02-08T03:58:12.345Z,10.78
2023-02-08T04:00:42.978Z,10.78
2023-02-08T04:03:17.647Z,10.73
2023-02-08T04:05:46.959Z,10.76
2023-02-08T04:08:14.684Z,10.78
2023-02-08T04:10:42.578Z,10.76
2023-02-08T04:13:11.989Z,10.73
2023-02-08T04:15:39.149Z,10.77
2023-02-08T04:18:06.792Z,10.79
2023-02-08T04:20:34.191Z,10.84
2023-02-08T04:23:03.743Z,10.87
2023-02-08T04:25:31.298Z,10.99
2023-02-08T04:27:58.746Z,11.05
2023-02-08T04:30:26.020Z,11.09
2023-02-08T04:32:53.329Z,11.12
2023-02-08T04:35:20.528Z,11.08
2023-02-08T04:37:47.700Z,11.15
2023-02-08T04:40:16.410Z,11.15
2023-02-08T04:42:43.875Z,11.07
2023-02-08T04:45:11.282Z,11.03
2023-02-08T04:47:38.768Z,11.01
2023-02-08T04:50:06.559Z,11.06
2023-02-08T04:52:33.698Z,11.02
2023-02-08T04:55:01.345Z,11.02
2023-02-08T04:57:30.371Z,10.95
2023-02-08T05:00:00.055Z,10.91
2023-02-08T05:02:28.164Z,10.95
2023-02-08T05:04:55.500Z,11.01
2023-02-08T05:07:22.946Z,11.00
2023-02-08T05:09:50.497Z,11.02
2023-02-08T05:12:17.907Z,10.94
2023-02-08T05:14:46.558Z,10.93
2023-02-08T05:17:14.097Z,10.97
2023-02-08T05:19:41.756Z,11.01
2023-02-08T05:22:09.197Z,11.03
2023-02-08T05:24:36.770Z,10.96
2023-02-08T05:27:04.259Z,10.97
2023-02-08T05:29:31.841Z,10.96
2023-02-08T05:32:00.705Z,10.85
2023-02-08T05:34:28.041Z,10.92
2023-02-08T05:36:55.193Z,10.90
2023-02-08T05:39:22.444Z,10.92
2023-02-08T05:41:50.027Z,10.91
2023-02-08T05:44:17.444Z,10.82
2023-02-08T05:46:45.085Z,10.77
2023-02-08T05:49:13.948Z,10.71
2023-02-08T05:51:40.846Z,10.62
2023-02-08T05:54:08.449Z,10.53
2023-02-08T05:56:35.819Z,10.53
2023-02-08T05:59:04.235Z,10.56
2023-02-08T06:01:32.320Z,10.45
2023-02-08T06:04:00.628Z,10.40
2023-02-08T06:06:29.783Z,10.35
2023-02-08T06:08:57.056Z,10.33
2023-02-08T06:11:24.192Z,10.20
2023-02-08T06:13:51.379Z,10.15
2023-02-08T06:16:20.051Z,10.28
2023-02-08T06:18:47.506Z,10.44
2023-02-08T06:21:14.899Z,10.47
2023-02-08T06:23:43.594Z,10.48
2023-02-08T06:26:10.851Z,10.48
2023-02-08T06:28:38.247Z,10.45
2023-02-08T06:31:06.321Z,10.42
2023-02-08T06:33:34.992Z,10.35
2023-02-08T06:36:02.144Z,10.29
2023-02-08T06:38:29.514Z,10.29
2023-02-08T06:40:58.418Z,10.41
2023-02-08T06:43:26.411Z,10.49
2023-02-08T06:45:53.680Z,10.49
2023-02-08T06:48:20.798Z,10.51
2023-02-08T06:50:48.003Z,10.52
2023-02-08T06:53:15.250Z,10.55
2023-02-08T06:55:42.438Z,10.50
2023-02-08T06:58:15.868Z,10.47
2023-02-08T07:00:43.326Z,10.45
2023-02-08T07:03:10.747Z,10.42
2023-02-08T07:05:39.156Z,10.46
2023-02-08T07:08:07.377Z,10.41
2023-02-08T07:10:35.212Z,10.40
2023-02-08T07:13:02.827Z,10.32
2023-02-08T07:15:31.945Z,10.27
2023-02-08T07:17:59.453Z,10.22
2023-02-08T07:20:26.768Z,10.21
2023-02-08T07:22:54.314Z,10.13
2023-02-08T07:25:22.387Z,10.01
2023-02-08T07:27:50.422Z,10.03
2023-02-08T07:30:17.247Z,9.91
2023-02-08T07:32:46.520Z,9.85
2023-02-08T07:35:13.799Z,9.81
2023-02-08T07:37:40.968Z,9.62
2023-02-08T07:40:08.848Z,9.37
2023-02-08T07:42:36.605Z,9.21
2023-02-08T07:45:04.504Z,9.15
2023-02-08T07:47:31.700Z,9.13
2023-02-08T07:50:00.563Z,9.11
2023-02-08T07:52:27.840Z,9.19
2023-02-08T07:54:55.181Z,9.17
2023-02-08T07:57:22.615Z,9.18
2023-02-08T07:59:52.026Z,9.22
2023-02-08T08:02:21.310Z,9.49
2023-02-08T08:04:48.963Z,9.95
2023-02-08T08:07:17.902Z,10.27
2023-02-08T08:09:45.329Z,10.53
2023-02-08T08:12:12.698Z,10.46
2023-02-08T08:14:39.917Z,10.42
2023-02-08T08:17:07.172Z,10.37
2023-02-08T08:19:34.521Z,10.28
2023-02-08T08:22:01.781Z,10.18
2023-02-08T08:24:31.174Z,10.28
2023-02-08T08:26:58.747Z,10.70
2023-02-08T08:29:26.226Z,11.26
2023-02-08T08:31:54.291Z,11.70
2023-02-08T08:34:21.931Z,11.89
2023-02-08T08:36:49.121Z,12.00
2023-02-08T08:39:16.393Z,12.28
2023-02-08T08:41:45.315Z,12.41
2023-02-08T08:44:12.458Z,12.51
2023-02-08T08:46:39.672Z,12.67
2023-02-08T08:49:07.330Z,12.62
2023-02-08T08:51:34.933Z,12.57
2023-02-08T08:54:02.243Z,12.61
2023-02-08T08:56:30.102Z,12.77
2023-02-08T08:59:00.741Z,12.69
2023-02-08T09:01:27.748Z,12.64
2023-02-08T09:03:55.073Z,12.78
2023-02-08T09:06:22.374Z,12.82
2023-02-08T09:08:51.752Z,12.97
2023-02-08T09:11:19.577Z,12.98
2023-02-08T09:13:46.699Z,12.96
2023-02-08T09:16:17.048Z,13.11
2023-02-08T09:18:44.900Z,13.62
2023-02-08T09:21:14.617Z,14.17
2023-02-08T09:23:42.207Z,14.58
2023-02-08T09:26:11.777Z,14.50
2023-02-08T09:28:39.657Z,14.30
2023-02-08T09:31:10.857Z,14.18
2023-02-08T09:33:39.928Z,14.15
2023-02-08T09:36:08.040Z,14.31
2023-02-08T09:38:35.810Z,14.14
2023-02-08T09:41:15.007Z,14.37
2023-02-08T09:43:52.827Z,14.51
2023-02-08T09:46:23.437Z,14.47
2023-02-08T09:48:55.133Z,14.70
2023-02-08T09:51:30.727Z,14.81
2023-02-08T09:54:03.007Z,14.90
2023-02-08T09:56:37.167Z,15.03
2023-02-08T09:59:04.651Z,15.26
2023-02-08T10:01:34.184Z,15.32
2023-02-08T10:04:09.475Z,15.62
2023-02-08T10:06:37.046Z,15.52
2023-02-08T10:09:07.639Z,15.55
2023-02-08T10:11:50.662Z,15.71
2023-02-08T10:14:44.901Z,15.76
2023-02-08T10:17:36.657Z,15.80
2023-02-08T10:20:17.065Z,15.82
2023-02-08T10:22:57.101Z,15.87
2023-02-08T10:25:41.544Z,15.85
2023-02-08T10:28:26.990Z,15.78
2023-02-08T10:31:01.909Z,15.70
2023-02-08T10:33:37.957Z,15.72
2023-02-08T10:36:14.903Z,15.61
2023-02-08T10:38:46.761Z,15.58
2023-02-08T10:41:20.568Z,15.41
2023-02-08T10:43:54.212Z,15.34
2023-02-08T10:46:28.454Z,15.52
2023-02-08T10:49:05.774Z,15.65
2023-02-08T10:51:35.126Z,15.87
2023-02-08T10:54:02.434Z,15.97
2023-02-08T10:56:41.486Z,15.82
2023-02-08T10:59:17.166Z,15.64
2023-02-08T11:01:47.032Z,15.48
2023-02-08T11:04:14.804Z,15.61
2023-02-08T11:06:46.326Z,15.63
2023-02-08T11:09:28.668Z,15.74
2023-02-08T11:11:57.831Z,15.68
2023-02-08T11:14:44.342Z,15.70
2023-02-08T11:17:26.188Z,15.88
2023-02-08T11:19:54.345Z,15.96
2023-02-08T11:22:26.749Z,15.88
2023-02-08T11:24:57.704Z,16.02
2023-02-08T11:27:33.613Z,16.10
2023-02-08T11:30:22.280Z,16.11
2023-02-08T11:33:10.582Z,15.90
2023-02-08T11:35:38.422Z,15.74
2023-02-08T11:38:18.416Z,15.60
2023-02-08T11:40:46.450Z,15.68
2023-02-08T11:43:23.056Z,15.86
2023-02-08T11:45:51.019Z,16.08
2023-02-08T11:48:25.855Z,16.07
2023-02-08T11:50:57.134Z,16.28
2023-02-08T11:53:30.069Z,16.62
2023-02-08T11:56:06.302Z,16.77
2023-02-08T11:58:34.512Z,16.89
2023-02-08T12:01:04.902Z,17.06
2023-02-08T12:03:37.015Z,17.19
2023-02-08T12:06:30.575Z,17.08
2023-02-08T12:09:12.883Z,17.23
2023-02-08T12:11:43.492Z,17.19
2023-02-08T12:14:27.077Z,17.44
2023-02-08T12:17:13.004Z,17.33
2023-02-08T12:20:03.584Z,16.83
2023-02-08T12:22:31.397Z,16.86
2023-02-08T12:25:19.799Z,17.12
2023-02-08T12:27:53.920Z,17.51
2023-02-08T12:30:30.241Z,17.54
2023-02-08T12:33:31.345Z,17.64
2023-02-08T12:36:08.915Z,17.89
2023-02-08T12:38:57.645Z,17.78
2023-02-08T12:41:36.043Z,17.83
2023-02-08T12:44:15.137Z,17.97
2023-02-08T12:46:59.002Z,18.03
2023-02-08T12:49:48.447Z,18.08
2023-02-08T12:52:26.097Z,18.10
2023-02-08T12:54:57.387Z,18.39
2023-02-08T12:57:31.680Z,18.44
2023-02-08T13:00:03.586Z,18.38
2023-02-08T13:02:36.135Z,18.40
2023-02-08T13:05:07.734Z,18.27
2023-02-08T13:07:41.829Z,18.54
2023-02-08T13:10:19.597Z,18.79
2023-02-08T13:12:53.444Z,18.66
2023-02-08T13:15:30.498Z,18.55
2023-02-08T13:18:00.433Z,18.73
2023-02-08T13:20:38.441Z,18.61
2023-02-08T13:23:16.129Z,18.48
2023-02-08T13:25:44.892Z,18.29
2023-02-08T13:28:20.470Z,18.66
2023-02-08T13:30:56.009Z,18.57
2023-02-08T13:33:34.115Z,18.49
2023-02-08T13:36:02.227Z,18.60
2023-02-08T13:38:33.260Z,18.71
2023-02-08T13:41:07.316Z,18.84
2023-02-08T13:43:42.700Z,18.74
2023-02-08T13:46:11.789Z,18.70
2023-02-08T13:48:45.381Z,18.77
2023-02-08T13:51:57.459Z,18.90
2023-02-08T13:54:24.900Z,18.95
2023-02-08T13:56:53.047Z,19.10
2023-02-08T13:59:42.747Z,18.97
2023-02-08T14:02:22.046Z,18.50
2023-02-08T14:04:51.323Z,18.17
2023-02-08T14:07:26.202Z,18.69
2023-02-08T14:10:18.556Z,18.66
2023-02-08T14:12:54.973Z,18.75
2023-02-08T14:15:31.365Z,18.89
2023-02-08T14:18:01.110Z,18.70
2023-02-08T14:20:35.389Z,18.67
2023-02-08T14:23:04.810Z,18.44
2023-02-08T14:25:43.093Z,18.18
2023-02-08T14:28:26.122Z,18.35
2023-02-08T14:30:59.145Z,18.51
2023-02-08T14:33:29.458Z,18.64
2023-02-08T14:35:58.975Z,18.53
2023-02-08T14:38:52.497Z,18.18
2023-02-08T14:41:49.388Z,17.62
2023-02-08T14:44:53.561Z,17.36
2023-02-08T14:48:03.301Z,17.51
2023-02-08T14:50:50.393Z,17.33
2023-02-08T14:53:27.113Z,16.92
2023-02-08T14:55:59.588Z,16.93
2023-02-08T14:58:30.741Z,17.24
2023-02-08T15:01:02.281Z,17.39
2023-02-08T15:03:33.504Z,17.60
2023-02-08T15:06:33.252Z,17.44
2023-02-08T15:09:02.567Z,17.58
2023-02-08T15:11:32.542Z,17.67
2023-02-08T15:14:03.520Z,17.65
2023-02-08T15:16:35.294Z,17.47
2023-02-08T15:19:05.527Z,17.22
2023-02-08T15:21:32.858Z,16.64
2023-02-08T15:24:05.908Z,16.49
2023-02-08T15:26:33.434Z,16.36
2023-02-08T15:29:00.915Z,16.47
2023-02-08T15:31:32.971Z,16.49
2023-02-08T15:34:02.747Z,16.41
2023-02-08T15:36:32.154Z,16.36
2023-02-08T15:39:09.895Z,16.17
2023-02-08T15:41:37.080Z,16.06
2023-02-08T15:44:17.517Z,16.14
2023-02-08T15:46:46.439Z,16.22
2023-02-08T15:49:16.351Z,16.08
2023-02-08T15:51:45.778Z,15.94
2023-02-08T15:54:18.470Z,15.78
2023-02-08T15:56:51.375Z,15.18
2023-02-08T15:59:24.388Z,15.31
2023-02-08T16:01:53.512Z,15.32
2023-02-08T16:04:21.229Z,14.94
2023-02-08T16:06:52.000Z,15.06
2023-02-08T16:09:24.963Z,15.15
2023-02-08T16:11:53.356Z,15.00
2023-02-08T16:14:27.034Z,14.88
2023-02-08T16:16:58.975Z,15.02
2023-02-08T16:19:28.473Z,14.91
2023-02-08T16:21:57.525Z,14.94
2023-02-08T16:24:28.086Z,14.86
2023-02-08T16:27:01.098Z,14.65
2023-02-08T16:29:30.964Z,14.63
2023-02-08T16:32:02.140Z,14.66
2023-02-08T16:34:31.695Z,14.56
2023-02-08T16:36:59.718Z,14.50
2023-02-08T16:39:39.800Z,14.40
2023-02-08T16:42:20.856Z,14.28
2023-02-08T16:45:11.381Z,14.27
2023-02-08T16:47:41.353Z,14.42
2023-02-08T16:50:11.303Z,14.44
2023-02-08T16:52:39.264Z,14.38
2023-02-08T16:55:16.941Z,14.47
2023-02-08T16:57:46.289Z,14.36
2023-02-08T17:00:19.374Z,14.25
2023-02-08T17:02:46.834Z,14.33
2023-02-08T17:05:14.972Z,14.19
2023-02-08T17:07:43.028Z,14.19
2023-02-08T17:10:18.842Z,13.99
2023-02-08T17:12:46.513Z,14.03
2023-02-08T17:15:13.921Z,14.03
2023-02-08T17:17:41.494Z,13.81
2023-02-08T17:20:18.188Z,13.88
2023-02-08T17:22:45.753Z,13.88
2023-02-08T17:25:14.975Z,13.86
2023-02-08T17:27:42.288Z,13.81
2023-02-08T17:30:18.533Z,13.71
2023-02-08T17:32:45.783Z,13.69
2023-02-08T17:35:15.272Z,13.72
2023-02-08T17:37:42.507Z,13.74
2023-02-08T17:40:10.499Z,13.74
2023-02-08T17:42:39.378Z,13.68
2023-02-08T17:45:08.275Z,13.65
2023-02-08T17:47:36.380Z,13.75
2023-02-08T17:50:03.943Z,13.81
2023-02-08T17:52:31.324Z,13.65
2023-02-08T17:54:58.735Z,13.70
2023-02-08T17:57:26.420Z,13.72
2023-02-08T17:59:55.688Z,13.66
2023-02-08T18:02:22.978Z,13.64
2023-02-08T18:04:50.324Z,13.73
2023-02-08T18:07:17.514Z,13.81
2023-02-08T18:09:45.110Z,13.76
2023-02-08T18:12:12.452Z,13.68
2023-02-08T18:14:39.608Z,13.73
2023-02-08T18:17:08.424Z,13.69
2023-02-08T18:19:35.843Z,13.61
2023-02-08T18:22:02.982Z,13.67
2023-02-08T18:24:31.275Z,13.50
2023-02-08T18:26:59.855Z,13.48
2023-02-08T18:29:27.516Z,13.43
2023-02-08T18:31:55.298Z,13.59
2023-02-08T18:34:24.292Z,13.47
2023-02-08T18:36:51.401Z,13.55
2023-02-08T18:39:18.670Z,13.50
2023-02-08T18:41:45.887Z,13.64
2023-02-08T18:44:13.401Z,13.63
2023-02-08T18:46:40.942Z,13.58
2023-02-08T18:49:08.120Z,13.71
2023-02-08T18:51:37.498Z,13.60
2023-02-08T18:54:05.112Z,13.77
2023-02-08T18:56:32.313Z,13.61
2023-02-08T18:58:59.633Z,13.60
2023-02-08T19:01:27.653Z,13.54
2023-02-08T19:03:54.937Z,13.46
2023-02-08T19:06:24.784Z,13.63
2023-02-08T19:08:55.785Z,13.50
2023-02-08T19:11:24.991Z,13.57
2023-02-08T19:13:53.788Z,13.66
2023-02-08T19:16:22.204Z,13.61
2023-02-08T19:18:49.699Z,13.73
2023-02-08T19:21:18.283Z,13.74
2023-02-08T19:23:47.089Z,13.60
2023-02-08T19:26:18.572Z,13.74
2023-02-08T19:28:46.415Z,13.64
2023-02-08T19:31:16.340Z,13.59
2023-02-08T19:33:45.824Z,13.50
2023-02-08T19:36:15.635Z,13.58
2023-02-08T19:38:43.190Z,13.62
2023-02-08T19:41:16.682Z,13.79
2023-02-08T19:43:45.670Z,13.53
2023-02-08T19:46:15.227Z,13.55
2023-02-08T19:48:42.818Z,13.62
2023-02-08T19:51:10.652Z,13.57
2023-02-08T19:53:38.229Z,13.53
2023-02-08T19:56:07.517Z,13.49
2023-02-08T19:58:36.859Z,13.56
2023-02-08T20:01:06.678Z,13.46
2023-02-08T20:03:33.989Z,13.49
2023-02-08T20:06:02.258Z,13.45
2023-02-08T20:08:30.443Z,13.52
2023-02-08T20:10:57.571Z,13.49
2023-02-08T20:13:24.992Z,13.37
2023-02-08T20:15:58.260Z,13.22
2023-02-08T20:18:25.878Z,13.36
2023-02-08T20:21:00.787Z,13.43
2023-02-08T20:23:28.645Z,13.43
2023-02-08T20:26:08.594Z,13.33
2023-02-08T20:28:38.250Z,13.44
2023-02-08T20:31:11.953Z,13.44
2023-02-08T20:33:40.075Z,13.45
2023-02-08T20:36:10.049Z,13.42
2023-02-08T20:38:38.242Z,13.45
2023-02-08T20:41:07.898Z,13.39
2023-02-08T20:43:35.689Z,13.39
2023-02-08T20:46:06.569Z,13.37
2023-02-08T20:48:36.069Z,13.47
2023-02-08T20:51:08.176Z,13.38
2023-02-08T20:53:37.078Z,13.31
2023-02-08T20:56:09.272Z,13.46
2023-02-08T20:58:36.713Z,13.60
2023-02-08T21:01:07.926Z,13.46
2023-02-08T21:03:37.007Z,13.58
2023-02-08T21:06:12.875Z,13.49
2023-02-08T21:08:40.601Z,13.62
2023-02-08T21:11:07.976Z,13.66
2023-02-08T21:13:35.359Z,13.80
2023-02-08T21:16:05.738Z,13.73
2023-02-08T21:18:32.862Z,13.69
2023-02-08T21:21:02.145Z,13.70
2023-02-08T21:23:29.508Z,13.57
2023-02-08T21:25:58.557Z,13.57
2023-02-08T21:28:26.305Z,13.68
2023-02-08T21:30:58.060Z,13.52
2023-02-08T21:33:25.821Z,13.63
2023-02-08T21:35:53.718Z,13.66
2023-02-08T21:38:22.581Z,13.64
2023-02-08T21:40:49.802Z,13.66
2023-02-08T21:43:17.211Z,13.59
2023-02-08T21:45:44.480Z,13.61
2023-02-08T21:48:11.673Z,13.66
2023-02-08T21:50:39.027Z,13.58
2023-02-08T21:53:06.258Z,13.59
2023-02-08T21:55:35.074Z,13.68
2023-02-08T21:58:02.541Z,13.76
2023-02-08T22:00:29.935Z,13.69
2023-02-08T22:02:57.256Z,13.84
2023-02-08T22:05:24.656Z,13.74
2023-02-08T22:07:53.974Z,13.85
2023-02-08T22:10:22.622Z,13.75
2023-02-08T22:12:51.741Z,13.73
2023-02-08T22:15:20.614Z,13.72
2023-02-08T22:17:48.117Z,13.71
2023-02-08T22:20:16.041Z,13.66
2023-02-08T22:22:43.389Z,13.69
2023-02-08T22:25:11.194Z,13.61
2023-02-08T22:27:39.488Z,13.51
2023-02-08T22:30:11.291Z,13.51
2023-02-08T22:32:40.511Z,13.58
2023-02-08T22:35:08.340Z,13.59
2023-02-08T22:37:36.508Z,13.53
2023-02-08T22:40:06.221Z,13.56
2023-02-08T22:42:33.930Z,13.61
2023-02-08T22:45:01.123Z,13.61
2023-02-08T22:47:30.575Z,13.76
2023-02-08T22:49:58.217Z,13.75
2023-02-08T22:52:25.476Z,13.86
2023-02-08T22:54:53.378Z,13.99
2023-02-08T22:57:21.018Z,14.18
2023-02-08T22:59:48.279Z,14.18
2023-02-08T23:02:15.910Z,14.27
2023-02-08T23:04:44.823Z,14.34
2023-02-08T23:07:12.213Z,14.50
2023-02-08T23:09:40.132Z,14.47
2023-02-08T23:12:07.965Z,14.60
2023-02-08T23:14:35.378Z,14.51
2023-02-08T23:17:02.667Z,14.51
2023-02-08T23:19:29.815Z,14.65
2023-02-08T23:22:00.522Z,14.67
2023-02-08T23:24:28.748Z,14.71
2023-02-08T23:26:56.150Z,14.53
2023-02-08T23:29:23.453Z,14.62
2023-02-08T23:31:51.105Z,14.67
2023-02-08T23:34:18.663Z,14.66
2023-02-08T23:36:46.869Z,14.77
2023-02-08T23:39:16.202Z,14.69
2023-02-08T23:41:43.439Z,14.80
2023-02-08T23:44:10.624Z,14.82
2023-02-08T23:46:38.542Z,14.76
2023-02-08T23:49:06.248Z,14.85
2023-02-08T23:51:34.269Z,14.89
2023-02-08T23:54:01.569Z,14.85
2023-02-08T23:56:31.517Z,14.84
2023-02-08T23:58:59.719Z,14.86
